sensor_id;sensor_type;location;lat;lon;timestamp;pressure;altitude;pressure_sealevel;temperature;humidity
34961;BME280;30789;52.030;7.110;2024-02-14T00:00:10;100695.84;;;6.47;100.00
34961;BME280;30789;52.030;7.110;2024-02-14T00:02:39;100687.19;;;6.45;100.00
34961;BME280;30789;52.030;7.110;2024-02-14T00:05:06;100691.44;;;6.43;100.00
34961;BME280;30789;52.030;7.110;2024-02-14T00:07:33;100682.03;;;6.40;100.00
34961;BME280;30789;52.030;7.110;2024-02-14T00:09:59;100680.16;;;6.44;100.00
34961;BME280;30789;52.030;7.110;2024-02-14T00:12:26;100671.06;;;6.40;100.00
34961;BME280;30789;52.030;7.110;2024-02-14T00:14:54;100662.06;;;6.40;100.00
34961;BME280;30789;52.030;7.110;2024-02-14T00:17:21;100665.25;;;6.42;100.00
34961;BME280;30789;52.030;7.110;2024-02-14T00:19:47;100662.06;;;6.40;100.00
34961;BME280;30789;52.030;7.110;2024-02-14T00:22:14;100660.38;;;6.35;100.00
34961;BME280;30789;52.030;7.110;2024-02-14T00:24:41;100648.28;;;6.36;100.00
34961;BME280;30789;52.030;7.110;2024-02-14T00:27:08;100657.75;;;6.39;100.00
34961;BME280;30789;52.030;7.110;2024-02-14T00:29:35;100656.94;;;6.38;100.00
34961;BME280;30789;52.030;7.110;2024-02-14T00:32:03;100651.03;;;6.36;100.00
34961;BME280;30789;52.030;7.110;2024-02-14T00:34:30;100656.50;;;6.36;100.00
34961;BME280;30789;52.030;7.110;2024-02-14T00:36:56;100653.50;;;6.41;100.00
34961;BME280;30789;52.030;7.110;2024-02-14T00:39:23;100646.00;;;6.38;100.00
34961;BME280;30789;52.030;7.110;2024-02-14T00:41:49;100654.19;;;6.38;100.00
34961;BME280;30789;52.030;7.110;2024-02-14T00:44:18;100652.31;;;6.42;100.00
34961;BME280;30789;52.030;7.110;2024-02-14T00:46:45;100649.59;;;6.42;100.00
34961;BME280;30789;52.030;7.110;2024-02-14T00:49:13;100649.88;;;6.37;100.00
34961;BME280;30789;52.030;7.110;2024-02-14T00:51:39;100647.66;;;6.43;100.00
34961;BME280;30789;52.030;7.110;2024-02-14T00:54:06;100645.72;;;6.43;100.00
34961;BME280;30789;52.030;7.110;2024-02-14T00:56:33;100651.09;;;6.40;100.00
34961;BME280;30789;52.030;7.110;2024-02-14T00:59:00;100637.78;;;6.38;100.00
34961;BME280;30789;52.030;7.110;2024-02-14T01:01:27;100637.88;;;6.42;100.00
34961;BME280;30789;52.030;7.110;2024-02-14T01:03:53;100636.25;;;6.41;100.00
34961;BME280;30789;52.030;7.110;2024-02-14T01:06:22;100635.53;;;6.44;100.00
34961;BME280;30789;52.030;7.110;2024-02-14T01:08:50;100621.94;;;6.47;100.00
34961;BME280;30789;52.030;7.110;2024-02-14T01:11:16;100622.38;;;6.49;100.00
34961;BME280;30789;52.030;7.110;2024-02-14T01:13:43;100627.94;;;6.53;100.00
34961;BME280;30789;52.030;7.110;2024-02-14T01:16:09;100625.13;;;6.49;100.00
34961;BME280;30789;52.030;7.110;2024-02-14T01:18:36;100624.31;;;6.49;100.00
34961;BME280;30789;52.030;7.110;2024-02-14T01:21:03;100619.00;;;6.56;100.00
34961;BME280;30789;52.030;7.110;2024-02-14T01:23:31;100628.72;;;6.53;100.00
34961;BME280;30789;52.030;7.110;2024-02-14T01:25:58;100615.84;;;6.54;100.00
34961;BME280;30789;52.030;7.110;2024-02-14T01:28:25;100615.19;;;6.60;100.00
34961;BME280;30789;52.030;7.110;2024-02-14T01:30:52;100613.59;;;6.59;100.00
34961;BME280;30789;52.030;7.110;2024-02-14T01:33:18;100610.44;;;6.57;100.00
34961;BME280;30789;52.030;7.110;2024-02-14T01:35:45;100607.72;;;6.57;100.00
34961;BME280;30789;52.030;7.110;2024-02-14T01:38:12;100600.72;;;6.60;100.00
34961;BME280;30789;52.030;7.110;2024-02-14T01:40:42;100600.44;;;6.65;100.00
34961;BME280;30789;52.030;7.110;2024-02-14T01:43:08;100600.06;;;6.66;100.00
34961;BME280;30789;52.030;7.110;2024-02-14T01:45:34;100593.00;;;6.65;100.00
34961;BME280;30789;52.030;7.110;2024-02-14T01:48:01;100585.22;;;6.67;100.00
34961;BME280;30789;52.030;7.110;2024-02-14T01:50:28;100593.00;;;6.65;100.00
34961;BME280;30789;52.030;7.110;2024-02-14T01:52:58;100585.66;;;6.69;100.00
34961;BME280;30789;52.030;7.110;2024-02-14T01:55:26;100578.94;;;6.67;100.00
34961;BME280;30789;52.030;7.110;2024-02-14T01:57:55;100584.78;;;6.65;100.00
34961;BME280;30789;52.030;7.110;2024-02-14T02:00:22;100586.44;;;6.70;100.00
34961;BME280;30789;52.030;7.110;2024-02-14T02:02:49;100587.66;;;6.72;100.00
34961;BME280;30789;52.030;7.110;2024-02-14T02:05:15;100580.59;;;6.71;100.00
34961;BME280;30789;52.030;7.110;2024-02-14T02:07:42;100577.50;;;6.73;100.00
34961;BME280;30789;52.030;7.110;2024-02-14T02:10:09;100575.56;;;6.73;100.00
34961;BME280;30789;52.030;7.110;2024-02-14T02:12:36;100573.63;;;6.74;100.00
34961;BME280;30789;52.030;7.110;2024-02-14T02:15:06;100568.59;;;6.76;100.00
34961;BME280;30789;52.030;7.110;2024-02-14T02:17:36;100568.63;;;6.79;100.00
34961;BME280;30789;52.030;7.110;2024-02-14T02:20:03;100567.91;;;6.82;100.00
34961;BME280;30789;52.030;7.110;2024-02-14T02:22:32;100574.97;;;6.83;100.00
34961;BME280;30789;52.030;7.110;2024-02-14T02:25:02;100572.66;;;6.85;100.00
34961;BME280;30789;52.030;7.110;2024-02-14T02:27:32;100571.16;;;6.88;100.00
34961;BME280;30789;52.030;7.110;2024-02-14T02:30:00;100572.81;;;6.92;100.00
34961;BME280;30789;52.030;7.110;2024-02-14T02:32:26;100558.75;;;6.94;100.00
34961;BME280;30789;52.030;7.110;2024-02-14T02:34:53;100559.22;;;6.99;100.00
34961;BME280;30789;52.030;7.110;2024-02-14T02:37:19;100558.50;;;7.03;100.00
34961;BME280;30789;52.030;7.110;2024-02-14T02:39:47;100558.06;;;7.00;100.00
34961;BME280;30789;52.030;7.110;2024-02-14T02:42:15;100549.91;;;7.04;100.00
34961;BME280;30789;52.030;7.110;2024-02-14T02:44:46;100553.03;;;7.03;100.00
34961;BME280;30789;52.030;7.110;2024-02-14T02:47:13;100560.16;;;7.07;100.00
34961;BME280;30789;52.030;7.110;2024-02-14T02:49:42;100552.81;;;7.11;100.00
34961;BME280;30789;52.030;7.110;2024-02-14T02:52:09;100548.53;;;7.14;100.00
34961;BME280;30789;52.030;7.110;2024-02-14T02:54:36;100549.81;;;7.20;100.00
34961;BME280;30789;52.030;7.110;2024-02-14T02:57:06;100553.28;;;7.17;100.00
34961;BME280;30789;52.030;7.110;2024-02-14T02:59:34;100548.28;;;7.22;100.00
34961;BME280;30789;52.030;7.110;2024-02-14T03:02:01;100559.69;;;7.24;100.00
34961;BME280;30789;52.030;7.110;2024-02-14T03:04:27;100542.50;;;7.27;100.00
34961;BME280;30789;52.030;7.110;2024-02-14T03:06:54;100546.13;;;7.31;100.00
34961;BME280;30789;52.030;7.110;2024-02-14T03:09:21;100547.75;;;7.36;100.00
34961;BME280;30789;52.030;7.110;2024-02-14T03:11:48;100539.53;;;7.36;100.00
34961;BME280;30789;52.030;7.110;2024-02-14T03:14:15;100540.97;;;7.30;100.00
34961;BME280;30789;52.030;7.110;2024-02-14T03:16:43;100539.53;;;7.36;100.00
34961;BME280;30789;52.030;7.110;2024-02-14T03:19:10;100542.28;;;7.36;100.00
34961;BME280;30789;52.030;7.110;2024-02-14T03:21:36;100537.19;;;7.38;100.00
34961;BME280;30789;52.030;7.110;2024-02-14T03:24:03;100532.88;;;7.37;100.00
34961;BME280;30789;52.030;7.110;2024-02-14T03:26:31;100541.53;;;7.39;100.00
34961;BME280;30789;52.030;7.110;2024-02-14T03:28:59;100538.91;;;7.46;100.00
34961;BME280;30789;52.030;7.110;2024-02-14T03:31:26;100543.97;;;7.44;100.00
34961;BME280;30789;52.030;7.110;2024-02-14T03:33:54;100531.03;;;7.44;100.00
34961;BME280;30789;52.030;7.110;2024-02-14T03:36:20;100537.38;;;7.48;100.00
34961;BME280;30789;52.030;7.110;2024-02-14T03:38:49;100538.97;;;7.49;100.00
34961;BME280;30789;52.030;7.110;2024-02-14T03:41:16;100545.28;;;7.53;100.00
34961;BME280;30789;52.030;7.110;2024-02-14T03:43:42;100536.34;;;7.56;100.00
34961;BME280;30789;52.030;7.110;2024-02-14T03:46:09;100537.94;;;7.57;100.00
34961;BME280;30789;52.030;7.110;2024-02-14T03:48:37;100538.41;;;7.63;100.00
34961;BME280;30789;52.030;7.110;2024-02-14T03:51:07;100542.31;;;7.62;100.00
34961;BME280;30789;52.030;7.110;2024-02-14T03:53:34;100547.47;;;7.67;100.00
34961;BME280;30789;52.030;7.110;2024-02-14T03:56:00;100551.84;;;7.71;100.00
34961;BME280;30789;52.030;7.110;2024-02-14T03:58:27;100551.00;;;7.67;100.00
34961;BME280;30789;52.030;7.110;2024-02-14T04:00:54;100554.22;;;7.73;100.00
34961;BME280;30789;52.030;7.110;2024-02-14T04:03:21;100548.25;;;7.67;100.00
34961;BME280;30789;52.030;7.110;2024-02-14T04:05:48;100556.22;;;7.76;100.00
34961;BME280;30789;52.030;7.110;2024-02-14T04:08:16;100556.97;;;7.73;100.00
34961;BME280;30789;52.030;7.110;2024-02-14T04:10:43;100562.94;;;7.78;100.00
34961;BME280;30789;52.030;7.110;2024-02-14T04:13:10;100562.13;;;7.78;100.00
34961;BME280;30789;52.030;7.110;2024-02-14T04:15:36;100549.59;;;7.77;100.00
34961;BME280;30789;52.030;7.110;2024-02-14T04:18:03;100560.97;;;7.79;100.00
34961;BME280;30789;52.030;7.110;2024-02-14T04:20:31;100555.44;;;7.75;100.00
34961;BME280;30789;52.030;7.110;2024-02-14T04:22:58;100560.19;;;7.78;100.00
34961;BME280;30789;52.030;7.110;2024-02-14T04:25:26;100571.56;;;7.80;100.00
34961;BME280;30789;52.030;7.110;2024-02-14T04:27:53;100567.38;;;7.86;100.00
34961;BME280;30789;52.030;7.110;2024-02-14T04:30:19;100563.41;;;7.84;100.00
34961;BME280;30789;52.030;7.110;2024-02-14T04:32:46;100563.41;;;7.84;100.00
34961;BME280;30789;52.030;7.110;2024-02-14T04:35:14;100557.50;;;7.82;100.00
34961;BME280;30789;52.030;7.110;2024-02-14T04:37:41;100566.59;;;7.86;100.00
34961;BME280;30789;52.030;7.110;2024-02-14T04:40:12;100561.53;;;7.88;100.00
34961;BME280;30789;52.030;7.110;2024-02-14T04:42:40;100563.91;;;7.89;100.00
34961;BME280;30789;52.030;7.110;2024-02-14T04:45:08;100577.72;;;7.96;100.00
34961;BME280;30789;52.030;7.110;2024-02-14T04:47:35;100576.97;;;7.99;100.00
34961;BME280;30789;52.030;7.110;2024-02-14T04:50:02;100575.03;;;8.00;100.00
34961;BME280;30789;52.030;7.110;2024-02-14T04:52:29;100584.53;;;8.06;100.00
34961;BME280;30789;52.030;7.110;2024-02-14T04:54:56;100586.09;;;8.07;100.00
34961;BME280;30789;52.030;7.110;2024-02-14T04:57:23;100577.13;;;8.10;100.00
34961;BME280;30789;52.030;7.110;2024-02-14T04:59:51;100585.44;;;8.13;100.00
34961;BME280;30789;52.030;7.110;2024-02-14T05:02:18;100580.69;;;8.10;100.00
34961;BME280;30789;52.030;7.110;2024-02-14T05:04:45;100585.44;;;8.13;100.00
34961;BME280;30789;52.030;7.110;2024-02-14T05:07:11;100587.75;;;8.11;100.00
34961;BME280;30789;52.030;7.110;2024-02-14T05:09:38;100580.69;;;8.10;100.00
34961;BME280;30789;52.030;7.110;2024-02-14T05:12:05;100592.13;;;8.16;100.00
34961;BME280;30789;52.030;7.110;2024-02-14T05:14:37;100601.22;;;8.20;100.00
34961;BME280;30789;52.030;7.110;2024-02-14T05:17:07;100598.16;;;8.25;100.00
34961;BME280;30789;52.030;7.110;2024-02-14T05:19:34;100595.03;;;8.26;100.00
34961;BME280;30789;52.030;7.110;2024-02-14T05:22:00;100597.00;;;8.26;100.00
34961;BME280;30789;52.030;7.110;2024-02-14T05:24:27;100602.53;;;8.29;100.00
34961;BME280;30789;52.030;7.110;2024-02-14T05:26:54;100596.63;;;8.27;100.00
34961;BME280;30789;52.030;7.110;2024-02-14T05:29:21;100608.03;;;8.29;100.00
34961;BME280;30789;52.030;7.110;2024-02-14T05:31:48;100602.16;;;8.31;100.00
34961;BME280;30789;52.030;7.110;2024-02-14T05:34:16;100608.09;;;8.33;100.00
34961;BME280;30789;52.030;7.110;2024-02-14T05:36:43;100610.41;;;8.31;100.00
34961;BME280;30789;52.030;7.110;2024-02-14T05:39:11;100611.25;;;8.35;100.00
34961;BME280;30789;52.030;7.110;2024-02-14T05:41:37;100609.28;;;8.35;100.00
34961;BME280;30789;52.030;7.110;2024-02-14T05:44:04;100622.25;;;8.35;100.00
34961;BME280;30789;52.030;7.110;2024-02-14T05:46:31;100620.75;;;8.41;100.00
34961;BME280;30789;52.030;7.110;2024-02-14T05:48:58;100617.31;;;8.47;100.00
34961;BME280;30789;52.030;7.110;2024-02-14T05:51:26;100627.44;;;8.43;100.00
34961;BME280;30789;52.030;7.110;2024-02-14T05:53:52;100630.56;;;8.42;100.00
34961;BME280;30789;52.030;7.110;2024-02-14T05:56:20;100625.06;;;8.42;100.00
34961;BME280;30789;52.030;7.110;2024-02-14T05:58:47;100632.16;;;8.43;100.00
34961;BME280;30789;52.030;7.110;2024-02-14T06:01:13;100640.06;;;8.48;100.00
34961;BME280;30789;52.030;7.110;2024-02-14T06:03:41;100626.75;;;8.50;100.00
34961;BME280;30789;52.030;7.110;2024-02-14T06:06:08;100636.16;;;8.49;100.00
34961;BME280;30789;52.030;7.110;2024-02-14T06:08:36;100632.69;;;8.52;100.00
34961;BME280;30789;52.030;7.110;2024-02-14T06:11:02;100637.00;;;8.53;100.00
34961;BME280;30789;52.030;7.110;2024-02-14T06:13:29;100638.19;;;8.52;100.00
34961;BME280;30789;52.030;7.110;2024-02-14T06:15:56;100636.63;;;8.54;100.00
34961;BME280;30789;52.030;7.110;2024-02-14T06:18:22;100639.75;;;8.53;100.00
34961;BME280;30789;52.030;7.110;2024-02-14T06:20:49;100647.25;;;8.56;100.00
34961;BME280;30789;52.030;7.110;2024-02-14T06:23:16;100642.13;;;8.54;100.00
34961;BME280;30789;52.030;7.110;2024-02-14T06:25:44;100653.56;;;8.60;100.00
34961;BME280;30789;52.030;7.110;2024-02-14T06:28:10;100652.00;;;8.59;100.00
34961;BME280;30789;52.030;7.110;2024-02-14T06:30:37;100653.16;;;8.58;100.00
34961;BME280;30789;52.030;7.110;2024-02-14T06:33:04;100655.16;;;8.61;100.00
34961;BME280;30789;52.030;7.110;2024-02-14T06:36:10;100659.13;;;8.63;100.00
34961;BME280;30789;52.030;7.110;2024-02-14T06:41:13;100669.00;;;8.68;100.00
34961;BME280;30789;52.030;7.110;2024-02-14T06:42:46;100672.97;;;8.71;100.00
34961;BME280;30789;52.030;7.110;2024-02-14T06:45:29;100668.59;;;8.66;100.00
34961;BME280;30789;52.030;7.110;2024-02-14T06:47:59;100671.75;;;8.68;100.00
34961;BME280;30789;52.030;7.110;2024-02-14T06:51:31;100666.63;;;8.66;100.00
34961;BME280;30789;52.030;7.110;2024-02-14T06:57:00;100675.72;;;8.71;100.00
34961;BME280;30789;52.030;7.110;2024-02-14T07:13:46;100684.09;;;8.81;100.00
34961;BME280;30789;52.030;7.110;2024-02-14T07:16:19;100693.47;;;8.80;100.00
34961;BME280;30789;52.030;7.110;2024-02-14T07:19:12;100693.16;;;8.85;100.00
34961;BME280;30789;52.030;7.110;2024-02-14T07:21:45;100698.97;;;8.80;100.00
34961;BME280;30789;52.030;7.110;2024-02-14T07:24:43;100695.84;;;8.82;100.00
34961;BME280;30789;52.030;7.110;2024-02-14T07:27:19;100717.47;;;8.83;100.00
34961;BME280;30789;52.030;7.110;2024-02-14T07:29:55;100708.09;;;8.88;100.00
34961;BME280;30789;52.030;7.110;2024-02-14T07:43:25;100722.97;;;8.83;100.00
34961;BME280;30789;52.030;7.110;2024-02-14T07:46:05;100716.41;;;8.91;100.00
34961;BME280;30789;52.030;7.110;2024-02-14T07:48:37;100733.69;;;8.92;100.00
34961;BME280;30789;52.030;7.110;2024-02-14T07:51:24;100721.84;;;8.88;100.00
34961;BME280;30789;52.030;7.110;2024-02-14T07:53:57;100717.97;;;8.89;100.00
34961;BME280;30789;52.030;7.110;2024-02-14T07:56:28;100728.47;;;8.83;100.00
34961;BME280;30789;52.030;7.110;2024-02-14T07:58:55;100727.34;;;8.88;100.00
34961;BME280;30789;52.030;7.110;2024-02-14T08:01:30;100722.59;;;8.85;100.00
34961;BME280;30789;52.030;7.110;2024-02-14T08:04:05;100725.78;;;8.87;100.00
34961;BME280;30789;52.030;7.110;2024-02-14T08:09:17;100728.91;;;8.85;100.00
34961;BME280;30789;52.030;7.110;2024-02-14T08:12:17;100728.91;;;8.85;100.00
34961;BME280;30789;52.030;7.110;2024-02-14T08:18:57;100733.22;;;8.86;100.00
34961;BME280;30789;52.030;7.110;2024-02-14T08:21:26;100734.81;;;8.87;100.00
34961;BME280;30789;52.030;7.110;2024-02-14T08:23:52;100736.03;;;8.90;100.00
34961;BME280;30789;52.030;7.110;2024-02-14T08:26:20;100741.94;;;8.92;100.00
34961;BME280;30789;52.030;7.110;2024-02-14T08:28:47;100738.78;;;8.90;100.00
34961;BME280;30789;52.030;7.110;2024-02-14T08:37:42;100745.97;;;8.98;100.00
34961;BME280;30789;52.030;7.110;2024-02-14T08:40:29;100736.13;;;8.97;100.00
34961;BME280;30789;52.030;7.110;2024-02-14T08:42:58;100749.53;;;9.02;100.00
34961;BME280;30789;52.030;7.110;2024-02-14T08:45:32;100756.25;;;9.04;100.00
34961;BME280;30789;52.030;7.110;2024-02-14T08:48:01;100740.50;;;9.01;100.00
34961;BME280;30789;52.030;7.110;2024-02-14T08:50:34;100751.91;;;9.03;100.00
34961;BME280;30789;52.030;7.110;2024-02-14T08:53:04;100756.25;;;9.04;100.00
34961;BME280;30789;52.030;7.110;2024-02-14T08:55:34;100758.25;;;9.07;100.00
34961;BME280;30789;52.030;7.110;2024-02-14T08:58:30;100763.41;;;9.12;100.00
34961;BME280;30789;52.030;7.110;2024-02-14T09:01:16;100766.59;;;9.14;100.00
34961;BME280;30789;52.030;7.110;2024-02-14T09:03:43;100761.53;;;9.16;100.00
34961;BME280;30789;52.030;7.110;2024-02-14T09:06:15;100765.59;;;9.26;100.00
34961;BME280;30789;52.030;7.110;2024-02-14T09:11:55;100780.63;;;9.35;100.00
34961;BME280;30789;52.030;7.110;2024-02-14T09:14:22;100780.97;;;9.30;100.00
34961;BME280;30789;52.030;7.110;2024-02-14T09:51:08;100792.03;;;9.37;100.00
34961;BME280;30789;52.030;7.110;2024-02-14T09:53:36;100798.41;;;9.45;100.00
34961;BME280;30789;52.030;7.110;2024-02-14T09:56:12;100792.88;;;9.41;100.00
34961;BME280;30789;52.030;7.110;2024-02-14T09:58:46;100790.53;;;9.43;100.00
34961;BME280;30789;52.030;7.110;2024-02-14T10:01:25;100793.66;;;9.42;100.00
34961;BME280;30789;52.030;7.110;2024-02-14T10:03:58;100798.41;;;9.45;100.00
34961;BME280;30789;52.030;7.110;2024-02-14T10:06:30;100800.38;;;9.44;100.00
34961;BME280;30789;52.030;7.110;2024-02-14T10:09:07;100807.91;;;9.47;100.00
34961;BME280;30789;52.030;7.110;2024-02-14T10:11:39;100815.81;;;9.52;100.00
34961;BME280;30789;52.030;7.110;2024-02-14T10:14:15;100808.69;;;9.48;100.00
34961;BME280;30789;52.030;7.110;2024-02-14T10:16:55;100818.94;;;9.51;100.00
34961;BME280;30789;52.030;7.110;2024-02-14T11:10:30;100833.47;;;9.81;100.00
34961;BME280;30789;52.030;7.110;2024-02-14T11:13:09;100830.63;;;9.74;100.00
34961;BME280;30789;52.030;7.110;2024-02-14T11:15:51;100831.75;;;9.69;100.00
34961;BME280;30789;52.030;7.110;2024-02-14T11:18:25;100826.28;;;9.73;100.00
34961;BME280;30789;52.030;7.110;2024-02-14T11:20:52;100827.09;;;9.73;100.00
34961;BME280;30789;52.030;7.110;2024-02-14T11:23:21;100823.22;;;9.78;100.00
34961;BME280;30789;52.030;7.110;2024-02-14T11:25:50;100839.75;;;9.81;100.00
34961;BME280;30789;52.030;7.110;2024-02-14T11:28:18;100828.38;;;9.83;100.00
34961;BME280;30789;52.030;7.110;2024-02-14T11:30:46;100829.50;;;9.78;100.00
34961;BME280;30789;52.030;7.110;2024-02-14T11:33:15;100824.91;;;9.89;100.00
34961;BME280;30789;52.030;7.110;2024-02-14T11:35:44;100835.91;;;9.89;100.00
34961;BME280;30789;52.030;7.110;2024-02-14T11:38:11;100835.50;;;9.87;100.00
34961;BME280;30789;52.030;7.110;2024-02-14T11:40:43;100820.59;;;9.88;100.00
34961;BME280;30789;52.030;7.110;2024-02-14T11:43:38;100821.50;;;10.03;100.00
34961;BME280;30789;52.030;7.110;2024-02-14T12:00:23;100820.13;;;10.16;100.00
34961;BME280;30789;52.030;7.110;2024-02-14T13:37:43;100796.56;;;10.69;100.00
34961;BME280;30789;52.030;7.110;2024-02-14T13:40:28;100780.44;;;10.68;100.00
34961;BME280;30789;52.030;7.110;2024-02-14T13:42:59;100777.31;;;10.73;100.00
34961;BME280;30789;52.030;7.110;2024-02-14T13:45:26;100789.88;;;10.70;100.00
34961;BME280;30789;52.030;7.110;2024-02-14T13:48:02;100785.16;;;10.71;100.00
34961;BME280;30789;52.030;7.110;2024-02-14T13:50:30;100784.38;;;10.67;100.00
34961;BME280;30789;52.030;7.110;2024-02-14T15:19:08;100777.91;;;10.45;100.00
34961;BME280;30789;52.030;7.110;2024-02-14T15:21:50;100777.47;;;10.43;100.00
34961;BME280;30789;52.030;7.110;2024-02-14T15:24:58;100782.59;;;10.45;100.00
34961;BME280;30789;52.030;7.110;2024-02-14T15:27:44;100777.47;;;10.43;100.00
34961;BME280;30789;52.030;7.110;2024-02-14T15:30:22;100782.94;;;10.39;100.00
34961;BME280;30789;52.030;7.110;2024-02-14T15:36:31;100789.25;;;10.40;100.00
34961;BME280;30789;52.030;7.110;2024-02-14T15:39:23;100780.59;;;10.42;100.00
34961;BME280;30789;52.030;7.110;2024-02-14T15:41:58;100790.81;;;10.41;100.00
34961;BME280;30789;52.030;7.110;2024-02-14T15:44:49;100782.19;;;10.43;100.00
34961;BME280;30789;52.030;7.110;2024-02-14T15:48:01;100777.84;;;10.42;100.00
34961;BME280;30789;52.030;7.110;2024-02-14T15:50:40;100785.31;;;10.41;100.00
34961;BME280;30789;52.030;7.110;2024-02-14T15:53:21;100788.50;;;10.43;100.00
34961;BME280;30789;52.030;7.110;2024-02-14T15:56:07;100778.22;;;10.40;100.00
34961;BME280;30789;52.030;7.110;2024-02-14T15:58:40;100779.03;;;10.41;100.00
34961;BME280;30789;52.030;7.110;2024-02-14T16:01:11;100782.19;;;10.43;100.00
34961;BME280;30789;52.030;7.110;2024-02-14T16:03:48;100782.59;;;10.45;100.00
34961;BME280;30789;52.030;7.110;2024-02-14T16:06:26;100783.03;;;10.47;100.00
34961;BME280;30789;52.030;7.110;2024-02-14T16:08:55;100781.47;;;10.49;100.00
34961;BME280;30789;52.030;7.110;2024-02-14T16:11:31;100770.84;;;10.51;100.00
34961;BME280;30789;52.030;7.110;2024-02-14T17:08:48;100784.09;;;10.82;100.00
34961;BME280;30789;52.030;7.110;2024-02-14T17:11:15;100776.56;;;10.79;100.00
34961;BME280;30789;52.030;7.110;2024-02-14T17:13:42;100788.75;;;10.78;100.00
34961;BME280;30789;52.030;7.110;2024-02-14T17:16:09;100791.97;;;10.87;100.00
34961;BME280;30789;52.030;7.110;2024-02-14T17:18:36;100784.50;;;10.88;100.00
34961;BME280;30789;52.030;7.110;2024-02-14T17:21:05;100778.94;;;10.81;100.00
34961;BME280;30789;52.030;7.110;2024-02-14T17:23:31;100780.94;;;10.84;100.00
34961;BME280;30789;52.030;7.110;2024-02-14T17:25:59;100797.50;;;10.87;100.00
34961;BME280;30789;52.030;7.110;2024-02-14T17:28:27;100782.88;;;10.80;100.00
34961;BME280;30789;52.030;7.110;2024-02-14T17:30:53;100784.47;;;10.84;100.00
34961;BME280;30789;52.030;7.110;2024-02-14T17:33:20;100791.16;;;10.83;100.00
34961;BME280;30789;52.030;7.110;2024-02-14T17:35:47;100792.41;;;10.89;100.00
34961;BME280;30789;52.030;7.110;2024-02-14T17:38:13;100802.63;;;10.89;100.00
34961;BME280;30789;52.030;7.110;2024-02-14T17:40:40;100797.50;;;10.87;100.00
34961;BME280;30789;52.030;7.110;2024-02-14T17:43:09;100806.59;;;10.91;100.00
34961;BME280;30789;52.030;7.110;2024-02-14T17:45:35;100806.19;;;10.89;100.00
34961;BME280;30789;52.030;7.110;2024-02-14T17:48:03;100814.88;;;10.95;100.00
34961;BME280;30789;52.030;7.110;2024-02-14T17:50:30;100804.63;;;10.95;100.00
34961;BME280;30789;52.030;7.110;2024-02-14T17:52:57;100814.03;;;10.87;100.00
34961;BME280;30789;52.030;7.110;2024-02-14T17:55:23;100816.03;;;10.87;100.00
34961;BME280;30789;52.030;7.110;2024-02-14T17:57:51;100816.81;;;10.91;100.00
34961;BME280;30789;52.030;7.110;2024-02-14T18:00:20;100818.84;;;11.01;100.00
34961;BME280;30789;52.030;7.110;2024-02-14T18:02:48;100822.44;;;11.05;100.00
34961;BME280;30789;52.030;7.110;2024-02-14T18:05:15;100819.69;;;11.05;100.00
34961;BME280;30789;52.030;7.110;2024-02-14T18:07:41;100828.72;;;11.02;100.00
34961;BME280;30789;52.030;7.110;2024-02-14T18:10:08;100828.34;;;11.03;100.00
34961;BME280;30789;52.030;7.110;2024-02-14T18:12:35;100828.00;;;11.08;100.00
34961;BME280;30789;52.030;7.110;2024-02-14T18:15:02;100833.50;;;11.08;100.00
34961;BME280;30789;52.030;7.110;2024-02-14T18:17:32;100841.00;;;11.11;100.00
34961;BME280;30789;52.030;7.110;2024-02-14T18:19:59;100845.72;;;11.11;100.00
34961;BME280;30789;52.030;7.110;2024-02-14T18:22:26;100850.47;;;11.14;100.00
34961;BME280;30789;52.030;7.110;2024-02-14T18:24:53;100850.09;;;11.15;100.00
34961;BME280;30789;52.030;7.110;2024-02-14T18:27:20;100850.84;;;11.12;100.00
34961;BME280;30789;52.030;7.110;2024-02-14T18:29:50;100848.91;;;11.13;100.00
34961;BME280;30789;52.030;7.110;2024-02-14T18:32:17;100846.91;;;11.13;100.00
34961;BME280;30789;52.030;7.110;2024-02-14T18:34:45;100844.19;;;11.17;100.00
34961;BME280;30789;52.030;7.110;2024-02-14T18:37:12;100844.97;;;11.14;100.00
34961;BME280;30789;52.030;7.110;2024-02-14T18:39:38;100853.66;;;11.19;100.00
34961;BME280;30789;52.030;7.110;2024-02-14T18:42:06;100847.00;;;11.27;100.00
34961;BME280;30789;52.030;7.110;2024-02-14T18:44:32;100851.72;;;11.27;100.00
34961;BME280;30789;52.030;7.110;2024-02-14T18:46:59;100853.31;;;11.31;100.00
34961;BME280;30789;52.030;7.110;2024-02-14T18:49:26;100847.34;;;11.22;100.00
34961;BME280;30789;52.030;7.110;2024-02-14T18:51:54;100849.69;;;11.17;100.00
34961;BME280;30789;52.030;7.110;2024-02-14T18:54:21;100855.63;;;11.22;100.00
34961;BME280;30789;52.030;7.110;2024-02-14T18:56:48;100852.13;;;11.29;100.00
34961;BME280;30789;52.030;7.110;2024-02-14T18:59:15;100859.63;;;11.28;100.00
34961;BME280;30789;52.030;7.110;2024-02-14T19:01:42;100853.72;;;11.26;100.00
34961;BME280;30789;52.030;7.110;2024-02-14T19:04:10;100848.97;;;11.23;100.00
34961;BME280;30789;52.030;7.110;2024-02-14T19:06:38;100847.41;;;11.26;100.00
34961;BME280;30789;52.030;7.110;2024-02-14T19:09:08;100850.16;;;11.26;100.00
34961;BME280;30789;52.030;7.110;2024-02-14T19:11:37;100840.69;;;11.27;100.00
34961;BME280;30789;52.030;7.110;2024-02-14T19:14:04;100849.72;;;11.24;100.00
34961;BME280;30789;52.030;7.110;2024-02-14T19:16:30;100843.84;;;11.29;100.00
34961;BME280;30789;52.030;7.110;2024-02-14T19:18:57;100840.34;;;11.32;100.00
34961;BME280;30789;52.030;7.110;2024-02-14T19:21:23;100851.38;;;11.32;100.00
34961;BME280;30789;52.030;7.110;2024-02-14T19:23:50;100850.56;;;11.28;100.00
34961;BME280;30789;52.030;7.110;2024-02-14T19:26:18;100859.22;;;11.30;100.00